Time,TemperatureF,DewpointF,PressureIn,WindDirection,WindDirectionDegrees,WindSpeedMPH,WindSpeedGustMPH,Humidity,HourlyPrecipIn,Conditions,Clouds,dailyrainin,SolarRadiationWatts/m^2,SoftwareType,DateUTC
2013-01-07 00:02:00,48.6,43.0,30.26,NE,56,4.0,-999.0,81,-99.99,,,0.00,0,weatherlink.com 1.10,2013-01-07 06:02:00,
2013-01-07 00:17:00,48.2,42.0,30.26,NE,51,1.0,-999.0,80,-99.99,,,0.00,0,weatherlink.com 1.10,2013-01-07 06:17:00,
2013-01-07 00:32:00,47.7,42.0,30.25,NE,46,0.0,-999.0,81,-99.99,,,0.00,0,weatherlink.com 1.10,2013-01-07 06:32:00,
2013-01-07 00:47:00,47.4,42.0,30.25,NE,46,0.0,-999.0,81,-99.99,,,0.00,0,weatherlink.com 1.10,2013-01-07 06:47:00,
2013-01-07 01:02:00,46.9,42.0,30.26,NE,46,0.0,-999.0,83,-99.99,,,0.00,0,weatherlink.com 1.10,2013-01-07 07:02:00,
2013-01-07 01:17:00,46.1,42.0,30.26,NE,46,0.0,-999.0,84,-99.99,,,0.00,0,weatherlink.com 1.10,2013-01-07 07:17:00,
2013-01-07 01:32:00,45.3,41.0,30.25,NE,46,0.0,-999.0,86,-99.99,,,0.00,0,weatherlink.com 1.10,2013-01-07 07:32:00,
2013-01-07 01:47:00,44.6,41.0,30.24,North,5,0.0,-999.0,87,-99.99,,,0.00,0,weatherlink.com 1.10,2013-01-07 07:47:00,
2013-01-07 02:02:00,44.0,41.0,30.23,North,5,0.0,-999.0,89,-99.99,,,0.00,0,weatherlink.com 1.10,2013-01-07 08:02:00,
2013-01-07 02:17:00,43.3,41.0,30.22,North,5,0.0,-999.0,90,-99.99,,,0.00,0,weatherlink.com 1.10,2013-01-07 08:17:00,
2013-01-07 02:32:00,43.0,41.0,30.21,North,5,0.0,-999.0,91,-99.99,,,0.00,0,weatherlink.com 1.10,2013-01-07 08:32:00,
2013-01-07 02:47:00,42.9,41.0,30.21,North,5,0.0,-999.0,92,-99.99,,,0.00,0,weatherlink.com 1.10,2013-01-07 08:47:00,
2013-01-07 03:02:00,43.9,42.0,30.21,North,5,0.0,-999.0,93,-99.99,,,0.00,0,weatherlink.com 1.10,2013-01-07 09:02:00,
2013-01-07 03:17:00,44.3,42.0,30.21,North,5,0.0,-999.0,93,-99.99,,,0.00,0,weatherlink.com 1.10,2013-01-07 09:17:00,
2013-01-07 03:32:00,44.1,42.0,30.21,North,5,0.0,-999.0,92,-99.99,,,0.00,0,weatherlink.com 1.10,2013-01-07 09:32:00,
2013-01-07 03:47:00,43.4,41.0,30.20,North,5,0.0,-999.0,92,-99.99,,,0.00,0,weatherlink.com 1.10,2013-01-07 09:47:00,
2013-01-07 04:02:00,44.6,43.0,30.20,North,5,1.0,-999.0,94,-99.99,,,0.00,0,weatherlink.com 1.10,2013-01-07 10:02:00,
2013-01-07 04:33:00,45.4,43.0,30.19,North,5,2.0,-999.0,92,-99.99,,,0.00,0,weatherlink.com 1.10,2013-01-07 10:33:00,
2013-01-07 04:48:00,45.9,44.0,30.18,NNE,15,5.0,-999.0,92,-99.99,,,0.00,0,weatherlink.com 1.10,2013-01-07 10:48:00,
2013-01-07 05:03:00,46.2,44.0,30.18,NNE,33,2.0,-999.0,91,-99.99,,,0.00,0,weatherlink.com 1.10,2013-01-07 11:03:00,
2013-01-07 05:18:00,46.1,44.0,30.17,NNE,24,3.0,-999.0,91,-99.99,,,0.00,0,weatherlink.com 1.10,2013-01-07 11:18:00,
2013-01-07 05:33:00,46.4,44.0,30.18,NNE,19,3.0,-999.0,91,-99.99,,,0.00,0,weatherlink.com 1.10,2013-01-07 11:33:00,
2013-01-07 05:48:00,46.4,44.0,30.17,NNE,28,4.0,-999.0,90,-99.99,,,0.00,0,weatherlink.com 1.10,2013-01-07 11:48:00,
2013-01-07 06:03:00,46.3,44.0,30.18,NNE,26,3.0,-999.0,90,-99.99,,,0.00,0,weatherlink.com 1.10,2013-01-07 12:03:00,
2013-01-07 06:18:00,46.1,43.0,30.18,NNE,15,5.0,-999.0,90,-99.99,,,0.00,0,weatherlink.com 1.10,2013-01-07 12:18:00,
2013-01-07 06:33:00,46.2,44.0,30.18,NNE,22,3.0,-999.0,90,-99.99,,,0.00,0,weatherlink.com 1.10,2013-01-07 12:33:00,
2013-01-07 06:48:00,46.3,44.0,30.18,NNE,32,3.0,-999.0,90,-99.99,,,0.00,0,weatherlink.com 1.10,2013-01-07 12:48:00,
2013-01-07 07:03:00,46.3,44.0,30.18,NNE,29,1.0,-999.0,90,-99.99,,,0.00,0,weatherlink.com 1.10,2013-01-07 13:03:00,
2013-01-07 07:18:00,46.3,44.0,30.18,NE,43,4.0,-999.0,90,-99.99,,,0.00,0,weatherlink.com 1.10,2013-01-07 13:18:00,
2013-01-07 07:33:00,46.5,44.0,30.18,NE,44,7.0,-999.0,89,-99.99,,,0.00,14,weatherlink.com 1.10,2013-01-07 13:33:00,
2013-01-07 07:48:00,46.6,44.0,30.18,NE,55,7.0,-999.0,89,-99.99,,,0.00,32,weatherlink.com 1.10,2013-01-07 13:48:00,
2013-01-07 08:03:00,47.1,44.0,30.18,NE,49,5.0,-999.0,90,-99.99,,,0.00,70,weatherlink.com 1.10,2013-01-07 14:03:00,
2013-01-07 08:18:00,47.9,45.0,30.19,NE,35,5.0,-999.0,89,-99.99,,,0.00,81,weatherlink.com 1.10,2013-01-07 14:18:00,
2013-01-07 08:33:00,48.7,46.0,30.19,NE,47,5.0,-999.0,89,-99.99,,,0.00,114,weatherlink.com 1.10,2013-01-07 14:33:00,
2013-01-07 08:48:00,49.7,46.0,30.19,NE,53,11.0,-999.0,88,-99.99,,,0.00,213,weatherlink.com 1.10,2013-01-07 14:48:00,
2013-01-07 09:03:00,50.1,46.0,30.18,NE,53,7.0,-999.0,87,-99.99,,,0.00,130,weatherlink.com 1.10,2013-01-07 15:03:00,
2013-01-07 09:18:00,50.3,47.0,30.18,NE,51,7.0,-999.0,87,-99.99,,,0.00,232,weatherlink.com 1.10,2013-01-07 15:18:00,
2013-01-07 09:33:00,50.6,47.0,30.19,NE,44,6.0,-999.0,87,-99.99,,,0.00,227,weatherlink.com 1.10,2013-01-07 15:33:00,
2013-01-07 09:48:00,51.6,48.0,30.20,NNE,30,6.0,-999.0,86,-99.99,,,0.00,279,weatherlink.com 1.10,2013-01-07 15:48:00,
2013-01-07 10:03:00,52.8,48.0,30.20,ENE,57,9.0,-999.0,85,-99.99,,,0.00,471,weatherlink.com 1.10,2013-01-07 16:03:00,
2013-01-07 10:18:00,53.9,49.0,30.20,NNE,32,6.0,-999.0,84,-99.99,,,0.00,492,weatherlink.com 1.10,2013-01-07 16:18:00,
2013-01-07 10:33:00,54.8,50.0,30.20,ENE,59,11.0,-999.0,83,-99.99,,,0.00,543,weatherlink.com 1.10,2013-01-07 16:33:00,
2013-01-07 10:48:00,55.4,50.0,30.20,ENE,74,8.0,-999.0,82,-99.99,,,0.00,552,weatherlink.com 1.10,2013-01-07 16:48:00,
2013-01-07 11:03:00,55.6,50.0,30.19,NE,42,10.0,-999.0,81,-99.99,,,0.00,371,weatherlink.com 1.10,2013-01-07 17:03:00,
2013-01-07 11:18:00,56.1,50.0,30.18,NE,48,11.0,-999.0,80,-99.99,,,0.00,584,weatherlink.com 1.10,2013-01-07 17:18:00,
2013-01-07 11:33:00,56.3,51.0,30.17,NNE,29,11.0,-999.0,81,-99.99,,,0.00,380,weatherlink.com 1.10,2013-01-07 17:33:00,
2013-01-07 11:49:00,56.5,51.0,30.16,NE,35,13.0,-999.0,81,-99.99,,,0.00,373,weatherlink.com 1.10,2013-01-07 17:49:00,
2013-01-07 12:04:00,56.7,51.0,30.15,NE,44,10.0,-999.0,81,-99.99,,,0.00,434,weatherlink.com 1.10,2013-01-07 18:04:00,
2013-01-07 12:34:00,57.6,52.0,30.12,NE,46,6.0,-999.0,81,-99.99,,,0.00,615,weatherlink.com 1.10,2013-01-07 18:34:00,
2013-01-07 12:49:00,58.0,52.0,30.10,NNE,32,9.0,-999.0,80,-99.99,,,0.00,306,weatherlink.com 1.10,2013-01-07 18:49:00,
2013-01-07 13:04:00,58.6,52.0,30.09,ENE,75,8.0,-999.0,79,-99.99,,,0.00,362,weatherlink.com 1.10,2013-01-07 19:04:00,
2013-01-07 13:19:00,58.7,52.0,30.08,NE,50,11.0,-999.0,79,-99.99,,,0.00,617,weatherlink.com 1.10,2013-01-07 19:19:00,
2013-01-07 13:34:00,59.0,52.0,30.08,NE,49,6.0,-999.0,78,-99.99,,,0.00,248,weatherlink.com 1.10,2013-01-07 19:34:00,
2013-01-07 13:49:00,59.4,53.0,30.07,NNE,32,8.0,-999.0,78,-99.99,,,0.00,633,weatherlink.com 1.10,2013-01-07 19:49:00,
2013-01-07 14:04:00,58.9,52.0,30.06,NE,54,10.0,-999.0,79,-99.99,,,0.00,223,weatherlink.com 1.10,2013-01-07 20:04:00,
2013-01-07 14:19:00,59.5,53.0,30.05,ENE,76,5.0,-999.0,80,-99.99,,,0.00,336,weatherlink.com 1.10,2013-01-07 20:19:00,
2013-01-07 14:34:00,58.6,53.0,30.05,NE,43,11.0,-999.0,82,-99.99,,,0.00,295,weatherlink.com 1.10,2013-01-07 20:34:00,
2013-01-07 14:49:00,59.0,54.0,30.04,ENE,63,3.0,-999.0,82,-99.99,,,0.00,272,weatherlink.com 1.10,2013-01-07 20:49:00,
2013-01-07 15:04:00,59.0,54.0,30.04,NE,40,6.0,-999.0,83,-99.99,,,0.00,262,weatherlink.com 1.10,2013-01-07 21:04:00,
2013-01-07 15:19:00,58.9,54.0,30.04,NE,56,10.0,-999.0,83,-99.99,,,0.00,162,weatherlink.com 1.10,2013-01-07 21:19:00,
2013-01-07 15:34:00,58.4,54.0,30.04,ENE,64,5.0,-999.0,86,-99.99,,,0.00,193,weatherlink.com 1.10,2013-01-07 21:34:00,
2013-01-07 15:49:00,58.5,55.0,30.03,ENE,57,3.0,-999.0,87,-99.99,,,0.00,209,weatherlink.com 1.10,2013-01-07 21:49:00,
2013-01-07 16:04:00,58.2,54.0,30.04,ENE,66,7.0,-999.0,87,-99.99,,,0.00,148,weatherlink.com 1.10,2013-01-07 22:04:00,
2013-01-07 16:19:00,58.1,55.0,30.04,ENE,59,6.0,-999.0,88,-99.99,,,0.00,67,weatherlink.com 1.10,2013-01-07 22:19:00,
2013-01-07 16:34:00,58.2,55.0,30.04,NE,39,5.0,-999.0,89,-99.99,,,0.00,77,weatherlink.com 1.10,2013-01-07 22:34:00,
2013-01-07 16:49:00,58.0,55.0,30.05,East,87,4.0,-999.0,89,-99.99,,,0.00,32,weatherlink.com 1.10,2013-01-07 22:49:00,
2013-01-07 17:04:00,57.8,55.0,30.04,NE,47,5.0,-999.0,89,-99.99,,,0.00,30,weatherlink.com 1.10,2013-01-07 23:04:00,
2013-01-07 17:19:00,57.6,55.0,30.03,NE,56,7.0,-999.0,90,-99.99,,,0.00,14,weatherlink.com 1.10,2013-01-07 23:19:00,
2013-01-07 17:34:00,57.4,55.0,30.03,NE,40,9.0,-999.0,90,-99.99,,,0.00,0,weatherlink.com 1.10,2013-01-07 23:34:00,
2013-01-07 17:49:00,57.4,55.0,30.04,ENE,57,8.0,-999.0,91,-99.99,,,0.00,0,weatherlink.com 1.10,2013-01-07 23:49:00,
2013-01-07 18:04:00,57.4,55.0,30.04,NE,53,5.0,-999.0,91,-99.99,,,0.00,0,weatherlink.com 1.10,2013-01-08 00:04:00,
2013-01-07 18:19:00,57.2,55.0,30.03,ENE,60,4.0,-999.0,92,-99.99,,,0.00,0,weatherlink.com 1.10,2013-01-08 00:19:00,
2013-01-07 18:34:00,56.9,55.0,30.03,NE,51,10.0,-999.0,92,-99.99,,,0.00,0,weatherlink.com 1.10,2013-01-08 00:34:00,
2013-01-07 18:53:00,56.8,55.0,30.04,NNE,33,5.0,-999.0,94,-99.99,,,0.00,0,weatherlink.com 1.10,2013-01-08 00:53:00,
2013-01-07 19:04:00,56.7,55.0,30.03,NNE,26,10.0,-999.0,94,-99.99,,,0.00,0,weatherlink.com 1.10,2013-01-08 01:04:00,
2013-01-07 19:19:00,56.4,55.0,30.02,NNE,33,6.0,-999.0,94,-99.99,,,0.00,0,weatherlink.com 1.10,2013-01-08 01:19:00,
2013-01-07 19:34:00,56.1,54.0,30.02,ENE,61,8.0,-999.0,94,-99.99,,,0.00,0,weatherlink.com 1.10,2013-01-08 01:34:00,
2013-01-07 19:42:00,-999.0,-99.9,30.02,North,-999,-999.0,-999.0,-999,-99.99,,,0.00,,weatherlink.com 1.10,2013-01-08 01:42:00,
2013-01-07 19:57:00,55.8,54.0,30.02,ENE,58,5.0,-999.0,95,-99.99,,,0.00,0,weatherlink.com 1.10,2013-01-08 01:57:00,
2013-01-07 20:12:00,55.8,54.0,30.02,NE,40,6.0,-999.0,95,-99.99,,,0.00,0,weatherlink.com 1.10,2013-01-08 02:12:00,
2013-01-07 20:27:00,55.8,54.0,30.01,NE,51,8.0,-999.0,95,-99.99,,,0.00,0,weatherlink.com 1.10,2013-01-08 02:27:00,
2013-01-07 20:42:00,55.6,54.0,30.00,ENE,74,12.0,-999.0,95,-99.99,,,0.00,0,weatherlink.com 1.10,2013-01-08 02:42:00,
2013-01-07 20:57:00,55.6,54.0,30.00,NE,39,10.0,-999.0,95,-99.99,,,0.00,0,weatherlink.com 1.10,2013-01-08 02:57:00,
2013-01-07 21:12:00,55.5,54.0,30.00,ENE,65,6.0,-999.0,96,-99.99,,,0.00,0,weatherlink.com 1.10,2013-01-08 03:12:00,
2013-01-07 21:27:00,55.8,55.0,30.00,NE,49,12.0,-999.0,96,-99.99,,,0.00,0,weatherlink.com 1.10,2013-01-08 03:27:00,
2013-01-07 21:42:00,56.2,55.0,29.99,ENE,64,8.0,-999.0,96,-99.99,,,0.00,0,weatherlink.com 1.10,2013-01-08 03:42:00,
2013-01-07 21:57:00,56.6,56.0,29.99,ENE,67,9.0,-999.0,96,-99.99,,,0.00,0,weatherlink.com 1.10,2013-01-08 03:57:00,
2013-01-07 22:12:00,57.0,56.0,29.97,East,99,6.0,-999.0,96,-99.99,,,0.00,0,weatherlink.com 1.10,2013-01-08 04:12:00,
2013-01-07 22:27:00,57.1,56.0,29.97,ENE,73,5.0,-999.0,96,-99.99,,,0.00,0,weatherlink.com 1.10,2013-01-08 04:27:00,
2013-01-07 22:42:00,57.3,56.0,29.97,NE,51,10.0,-999.0,96,-99.99,,,0.00,0,weatherlink.com 1.10,2013-01-08 04:42:00,
2013-01-07 22:57:00,57.3,56.0,29.96,East,90,5.0,-999.0,96,-99.99,,,0.00,0,weatherlink.com 1.10,2013-01-08 04:57:00,
2013-01-07 23:13:00,57.2,56.0,29.96,ENE,59,5.0,-999.0,96,-99.99,,,0.00,0,weatherlink.com 1.10,2013-01-08 05:13:00,
2013-01-07 23:28:00,57.2,56.0,29.95,ENE,61,11.0,-999.0,96,-99.99,,,0.01,0,weatherlink.com 1.10,2013-01-08 05:28:00,
2013-01-07 23:43:00,57.1,56.0,29.95,East,80,9.0,-999.0,96,-99.99,,,0.01,0,weatherlink.com 1.10,2013-01-08 05:43:00,
2013-01-07 23:58:00,56.8,56.0,29.94,NE,44,12.0,-999.0,96,-99.99,,,0.01,0,weatherlink.com 1.10,2013-01-08 05:58:00,